Time;durP1;ratioP1;P1;durP2;ratioP2;P2;SDS_P1;SDS_P2;PMS_P1;PMS_P2;Temp;Humidity;BMP_temperature;BMP_pressure;BME280_temperature;BME280_humidity;BME280_pressure;Samples;Min_cycle;Max_cycle;Signal;HPM_P1;HPM_P2
2022/04/14 00:01:00;;;;;;;18.20;12.15;;;12.90;99.90;;;;;;5058030;28;20051;-76
2022/04/14 00:03:26;;;;;;;19.45;13.02;;;12.90;99.90;;;;;;5058143;28;20028;-76
2022/04/14 00:05:52;;;;;;;21.80;13.60;;;12.90;99.90;;;;;;5075740;28;20039;-76
2022/04/14 00:08:18;;;;;;;24.63;14.43;;;12.90;99.90;;;;;;5041124;28;20078;-76
2022/04/14 00:10:43;;;;;;;22.42;14.02;;;12.90;99.90;;;;;;5075735;28;20123;-75
2022/04/14 00:13:09;;;;;;;21.40;14.88;;;12.90;99.90;;;;;;5057836;28;20037;-75
2022/04/14 00:15:34;;;;;;;23.80;15.50;;;12.90;99.90;;;;;;5040957;28;20032;-75
2022/04/14 00:18:00;;;;;;;28.75;16.50;;;12.90;99.90;;;;;;5040797;28;20032;-75
2022/04/14 00:20:26;;;;;;;27.30;16.98;;;12.90;99.90;;;;;;5040758;28;20037;-75
2022/04/14 00:22:51;;;;;;;31.52;17.90;;;12.90;99.90;;;;;;5041150;28;20127;-75
2022/04/14 00:25:18;;;;;;;33.10;19.33;;;12.90;99.90;;;;;;5040619;28;20090;-75
2022/04/14 00:27:43;;;;;;;29.92;19.95;;;12.90;99.90;;;;;;5040888;28;20035;-75
2022/04/14 00:30:10;;;;;;;34.55;21.08;;;12.90;99.90;;;;;;5057537;28;20032;-75
2022/04/14 00:32:36;;;;;;;39.38;21.70;;;12.90;99.90;;;;;;5057304;28;20036;-74
2022/04/14 00:35:02;;;;;;;34.45;21.42;;;12.90;99.90;;;;;;5057254;28;20128;-75
2022/04/14 00:37:28;;;;;;;35.38;21.33;;;12.90;99.90;;;;;;5040930;28;20039;-74
2022/04/14 00:39:53;;;;;;;34.90;22.20;;;12.90;99.90;;;;;;5040508;28;20472;-74
2022/04/14 00:42:19;;;;;;;38.55;22.40;;;12.90;99.90;;;;;;5040923;28;20105;-74
2022/04/14 00:44:44;;;;;;;35.97;22.20;;;12.90;99.90;;;;;;5040346;28;20033;-75
2022/04/14 00:47:12;;;;;;;35.50;22.48;;;12.90;99.90;;;;;;5040475;28;20476;-74
2022/04/14 00:49:38;;;;;;;30.35;20.88;;;12.90;99.90;;;;;;5057308;28;20039;-74
2022/04/14 00:52:04;;;;;;;51.47;21.08;;;12.90;99.90;;;;;;5057090;28;20049;-74
2022/04/14 00:54:31;;;;;;;42.47;20.55;;;12.90;99.90;;;;;;5074563;28;20453;-75
2022/04/14 00:57:01;;;;;;;30.52;20.23;;;12.90;99.90;;;;;;5056867;28;20021;-75
2022/04/14 00:59:28;;;;;;;28.13;19.70;;;12.90;99.90;;;;;;5056776;28;20476;-75
2022/04/14 01:01:54;;;;;;;28.38;19.63;;;12.90;99.90;;;;;;5075072;28;20078;-75
2022/04/14 01:04:20;;;;;;;29.77;20.40;;;12.90;99.90;;;;;;5056563;28;20035;-74
2022/04/14 01:06:46;;;;;;;29.17;20.45;;;12.90;99.90;;;;;;5075345;28;20099;-74
2022/04/14 01:09:19;;;;;;;31.80;20.25;;;12.80;99.90;;;;;;5040451;28;20132;-74
2022/04/14 01:11:50;;;;;;;26.73;18.88;;;12.90;99.90;;;;;;5040344;28;20044;-74
2022/04/14 01:14:30;;;;;;;27.30;20.80;;;12.80;99.90;;;;;;5040344;28;20032;-74
2022/04/14 01:16:58;;;;;;;30.70;21.50;;;12.80;99.90;;;;;;5039910;28;20033;-74
2022/04/14 01:19:25;;;;;;;35.55;21.40;;;12.80;99.90;;;;;;5056435;28;20082;-74
2022/04/14 01:22:07;;;;;;;29.17;19.17;;;12.80;99.90;;;;;;5074265;28;20024;-74
2022/04/14 01:24:34;;;;;;;28.05;20.98;;;12.80;99.90;;;;;;5074190;28;20029;-74
2022/04/14 01:27:00;;;;;;;29.55;21.60;;;12.90;99.90;;;;;;5039858;28;20020;-74
2022/04/14 01:29:27;;;;;;;29.48;21.67;;;12.80;99.90;;;;;;5039617;28;20393;-74
2022/04/14 01:31:54;;;;;;;33.17;22.90;;;12.80;99.90;;;;;;5056060;28;20020;-74
2022/04/14 01:34:20;;;;;;;30.77;23.10;;;12.70;99.90;;;;;;5056100;28;20021;-74
2022/04/14 01:36:46;;;;;;;34.65;24.90;;;12.70;99.90;;;;;;5056000;28;20052;-74
2022/04/14 01:39:13;;;;;;;33.38;24.80;;;12.80;99.90;;;;;;5056007;28;20078;-74
2022/04/14 01:41:40;;;;;;;33.72;24.75;;;12.80;99.90;;;;;;5055887;28;20017;-74
2022/04/14 01:44:06;;;;;;;31.15;23.90;;;12.80;99.90;;;;;;5073759;28;20025;-74
2022/04/14 01:46:32;;;;;;;30.80;24.10;;;12.80;99.90;;;;;;5055669;28;20032;-74
2022/04/14 01:49:00;;;;;;;33.55;24.00;;;12.80;99.90;;;;;;5055784;28;20017;-74
2022/04/14 01:51:27;;;;;;;32.83;25.50;;;12.80;99.90;;;;;;5056419;28;20028;-74
2022/04/14 01:53:52;;;;;;;35.08;26.02;;;12.80;99.90;;;;;;5073596;28;20062;-74
2022/04/14 01:56:18;;;;;;;37.08;26.50;;;12.80;99.90;;;;;;5039085;28;20040;-74
2022/04/14 01:58:44;;;;;;;37.58;27.15;;;12.80;99.90;;;;;;5055611;28;20107;-75
2022/04/14 02:01:10;;;;;;;34.45;26.02;;;12.80;99.90;;;;;;5055683;28;20025;-74
2022/04/14 02:03:36;;;;;;;36.20;28.25;;;12.80;99.90;;;;;;5055597;28;20021;-74
2022/04/14 02:06:02;;;;;;;35.72;27.05;;;12.80;99.90;;;;;;5054736;28;20381;-74
2022/04/14 02:08:28;;;;;;;38.92;27.55;;;12.80;99.90;;;;;;5073457;28;20488;-74
2022/04/14 02:10:53;;;;;;;37.05;28.33;;;12.70;99.90;;;;;;5055462;28;20045;-74
2022/04/14 02:13:19;;;;;;;36.40;27.35;;;12.80;99.90;;;;;;5055756;28;20428;-74
2022/04/14 02:15:45;;;;;;;41.60;27.85;;;12.80;99.90;;;;;;5038818;28;20469;-74
2022/04/14 02:18:10;;;;;;;34.15;26.58;;;12.80;99.90;;;;;;5055381;28;20021;-74
2022/04/14 02:20:36;;;;;;;37.58;27.40;;;12.80;99.90;;;;;;5073242;28;20020;-74
2022/04/14 02:23:01;;;;;;;40.85;28.42;;;12.80;99.90;;;;;;5055383;28;20032;-74
2022/04/14 02:25:27;;;;;;;39.58;30.08;;;12.80;99.90;;;;;;5038707;28;20036;-74
2022/04/14 02:27:53;;;;;;;37.92;29.33;;;12.80;99.90;;;;;;5046911;28;20035;-78
2022/04/14 02:30:18;;;;;;;38.85;29.92;;;12.80;99.90;;;;;;5065023;28;20036;-78
2022/04/14 02:32:44;;;;;;;37.40;30.52;;;12.80;99.90;;;;;;5047169;28;20047;-78
2022/04/14 02:35:10;;;;;;;39.92;30.88;;;12.80;99.90;;;;;;5087043;28;20419;-78
2022/04/14 02:37:36;;;;;;;46.67;31.52;;;12.70;99.90;;;;;;5066918;28;20028;-78
2022/04/14 02:40:02;;;;;;;46.58;31.17;;;12.70;99.90;;;;;;5086807;28;20039;-78
2022/04/14 02:42:28;;;;;;;46.17;31.88;;;12.80;99.90;;;;;;5064102;28;20445;-78
2022/04/14 02:44:54;;;;;;;60.10;31.95;;;12.80;99.90;;;;;;5081166;28;20099;-78
2022/04/14 02:47:19;;;;;;;55.00;31.08;;;12.70;99.90;;;;;;5060159;28;20557;-78
2022/04/14 02:49:45;;;;;;;45.95;30.77;;;12.80;99.90;;;;;;5062374;28;20060;-78
2022/04/14 02:52:10;;;;;;;37.97;30.90;;;12.80;99.90;;;;;;5081580;28;20047;-78
2022/04/14 02:54:38;;;;;;;38.45;30.65;;;12.80;99.90;;;;;;5045989;28;20469;-78
2022/04/14 02:57:08;;;;;;;43.92;30.05;;;12.80;99.90;;;;;;5043898;28;20024;-78
2022/04/14 02:59:36;;;;;;;44.15;29.75;;;12.80;99.90;;;;;;5060094;28;20024;-78
2022/04/14 03:02:03;;;;;;;47.45;31.27;;;12.80;99.90;;;;;;5076393;28;20021;-78
2022/04/14 03:04:30;;;;;;;37.50;31.25;;;12.70;99.90;;;;;;5079032;28;20117;-78
2022/04/14 03:06:56;;;;;;;39.28;30.23;;;12.80;99.90;;;;;;5041798;28;20075;-78
2022/04/14 03:09:22;;;;;;;49.85;30.30;;;12.70;99.90;;;;;;5074321;28;20064;-78
2022/04/14 03:11:48;;;;;;;47.55;30.92;;;12.70;99.90;;;;;;5073660;28;20098;-78
2022/04/14 03:14:14;;;;;;;48.58;31.15;;;12.70;99.90;;;;;;5056922;28;20025;-78
2022/04/14 03:16:40;;;;;;;69.75;30.33;;;12.70;99.90;;;;;;5078317;28;20025;-78
2022/04/14 03:19:06;;;;;;;42.88;31.75;;;12.70;99.90;;;;;;5079674;28;20093;-78
2022/04/14 03:21:31;;;;;;;54.03;30.05;;;12.60;99.90;;;;;;5063988;28;20090;-78
2022/04/14 03:23:57;;;;;;;76.50;29.70;;;12.60;99.90;;;;;;5081821;28;20036;-78
2022/04/14 03:26:22;;;;;;;68.20;30.65;;;12.50;99.90;;;;;;5060197;28;20044;-79
2022/04/14 03:28:48;;;;;;;46.25;30.17;;;12.50;99.90;;;;;;5061166;28;20116;-79
2022/04/14 03:31:14;;;;;;;37.28;29.92;;;12.50;99.90;;;;;;5079401;28;20469;-79
2022/04/14 03:33:39;;;;;;;45.08;29.73;;;12.50;99.90;;;;;;5060789;28;20024;-79
2022/04/14 03:36:05;;;;;;;35.05;27.35;;;12.50;99.90;;;;;;5045552;28;20442;-78
2022/04/14 03:38:31;;;;;;;52.50;27.45;;;12.50;99.90;;;;;;5061115;28;20040;-79
2022/04/14 03:40:59;;;;;;;49.53;27.45;;;12.50;99.90;;;;;;5078678;28;20036;-79
2022/04/14 03:43:25;;;;;;;32.22;25.27;;;12.50;99.90;;;;;;5077181;28;20107;-79
2022/04/14 03:45:51;;;;;;;48.10;26.75;;;12.50;99.90;;;;;;5077535;28;20526;-79
2022/04/14 03:48:17;;;;;;;75.72;27.63;;;12.50;99.90;;;;;;5076576;28;20111;-78
2022/04/14 03:50:42;;;;;;;32.17;25.58;;;12.40;99.90;;;;;;5077096;28;20020;-78
2022/04/14 03:53:08;;;;;;;64.65;25.75;;;12.40;99.90;;;;;;5059232;28;20055;-79
2022/04/14 03:55:34;;;;;;;42.85;24.90;;;12.30;99.90;;;;;;5059601;28;20037;-79
2022/04/14 03:57:59;;;;;;;85.65;25.52;;;12.30;99.90;;;;;;5076258;28;20552;-78
2022/04/14 04:00:25;;;;;;;60.30;27.35;;;12.30;99.90;;;;;;5085982;28;20036;-79
2022/04/14 04:02:51;;;;;;;32.67;25.25;;;12.20;99.90;;;;;;5096745;28;20119;-78
2022/04/14 04:05:17;;;;;;;33.67;25.52;;;12.20;99.90;;;;;;5096971;28;20123;-79
2022/04/14 04:07:42;;;;;;;73.88;24.40;;;12.20;99.90;;;;;;5058282;28;20028;-79
2022/04/14 04:10:08;;;;;;;30.35;25.80;;;12.20;99.90;;;;;;5088889;28;20485;-79
2022/04/14 04:12:34;;;;;;;49.47;25.27;;;12.20;99.90;;;;;;5076302;28;20029;-78
2022/04/14 04:15:00;;;;;;;38.47;23.63;;;12.20;99.90;;;;;;5058663;28;20062;-79
2022/04/14 04:17:25;;;;;;;42.70;25.63;;;12.20;99.90;;;;;;5075552;28;20380;-73
2022/04/14 04:19:51;;;;;;;65.78;26.10;;;12.20;99.90;;;;;;5057841;28;20040;-73
2022/04/14 04:22:17;;;;;;;40.75;25.05;;;12.10;99.90;;;;;;5075446;28;20032;-73
2022/04/14 04:24:42;;;;;;;35.33;23.83;;;12.20;99.90;;;;;;5058107;28;20458;-74
2022/04/14 04:27:08;;;;;;;65.53;24.65;;;12.00;99.90;;;;;;5057714;28;20111;-73
2022/04/14 04:29:34;;;;;;;49.63;22.60;;;12.10;99.90;;;;;;5040049;28;20032;-73
2022/04/14 04:32:00;;;;;;;29.40;21.52;;;12.10;99.90;;;;;;5057987;28;20025;-73
2022/04/14 04:34:26;;;;;;;31.58;22.55;;;12.10;99.90;;;;;;5057975;28;20058;-73
2022/04/14 04:36:52;;;;;;;27.45;21.88;;;12.00;99.90;;;;;;5057348;28;20031;-73
2022/04/14 04:39:18;;;;;;;58.72;22.38;;;12.00;99.90;;;;;;5075199;28;20070;-74
2022/04/14 04:41:43;;;;;;;122.50;22.20;;;12.00;99.90;;;;;;5075501;28;20028;-73
2022/04/14 04:44:09;;;;;;;30.95;20.85;;;11.90;99.90;;;;;;5057331;28;20115;-74
2022/04/14 04:46:35;;;;;;;27.35;22.38;;;11.90;99.90;;;;;;5074813;28;20060;-73
2022/04/14 04:49:01;;;;;;;59.90;22.63;;;11.90;99.90;;;;;;5040150;28;20106;-73
2022/04/14 04:51:27;;;;;;;25.15;22.42;;;12.00;99.90;;;;;;5075138;28;20029;-73
2022/04/14 04:53:53;;;;;;;32.75;22.35;;;11.90;99.90;;;;;;5075200;28;20033;-73
2022/04/14 04:56:18;;;;;;;36.70;22.33;;;11.90;99.90;;;;;;5056975;28;20033;-73
2022/04/14 04:58:45;;;;;;;50.28;22.48;;;11.90;99.90;;;;;;5056949;28;20032;-73
2022/04/14 05:01:10;;;;;;;38.55;22.17;;;11.90;99.90;;;;;;5057776;28;20074;-79
2022/04/14 05:03:36;;;;;;;28.38;22.70;;;11.80;99.90;;;;;;5059107;28;20037;-79
2022/04/14 05:06:02;;;;;;;41.75;22.13;;;11.80;99.90;;;;;;5042043;28;20131;-79
2022/04/14 05:08:27;;;;;;;28.73;18.90;;;11.80;99.90;;;;;;5076735;28;20103;-79
2022/04/14 05:10:53;;;;;;;26.55;19.17;;;11.80;99.90;;;;;;5075772;28;20076;-79
2022/04/14 05:13:19;;;;;;;82.20;20.60;;;11.80;99.90;;;;;;5042322;28;20029;-79
2022/04/14 05:15:45;;;;;;;38.53;20.13;;;11.80;99.90;;;;;;5075177;28;20036;-80
2022/04/14 05:18:10;;;;;;;22.08;19.20;;;11.80;99.90;;;;;;5075297;28;20032;-79
2022/04/14 05:20:36;;;;;;;27.88;21.13;;;11.80;99.90;;;;;;5057676;28;20032;-79
2022/04/14 05:23:03;;;;;;;25.55;20.85;;;11.80;99.90;;;;;;5058453;28;20035;-80
2022/04/14 05:25:29;;;;;;;29.85;20.60;;;11.80;99.90;;;;;;5057774;28;20036;-80
2022/04/14 05:27:55;;;;;;;75.13;21.52;;;11.80;99.90;;;;;;5074591;28;20036;-80
2022/04/14 05:30:21;;;;;;;89.47;19.98;;;11.80;99.90;;;;;;5056129;28;20037;-79
2022/04/14 05:32:46;;;;;;;89.40;21.30;;;11.70;99.90;;;;;;5074340;28;20039;-80
2022/04/14 05:35:12;;;;;;;41.85;20.15;;;11.70;99.90;;;;;;5056981;28;20043;-80
2022/04/14 05:37:38;;;;;;;44.17;20.05;;;11.70;99.90;;;;;;5056678;28;20408;-80
2022/04/14 05:40:05;;;;;;;39.95;20.85;;;11.70;99.90;;;;;;5057421;28;20062;-81
2022/04/14 05:42:31;;;;;;;49.60;21.13;;;11.70;99.90;;;;;;5056120;28;20093;-79
2022/04/14 05:44:57;;;;;;;43.58;21.42;;;11.60;99.90;;;;;;5073969;28;20072;-79
2022/04/14 05:47:24;;;;;;;55.95;21.63;;;11.70;99.90;;;;;;5056153;28;20024;-78
2022/04/14 05:49:51;;;;;;;38.17;19.65;;;11.70;99.90;;;;;;5057740;28;20028;-78
2022/04/14 05:52:16;;;;;;;99.50;21.30;;;11.70;99.90;;;;;;5074953;28;20029;-79
2022/04/14 05:54:44;;;;;;;27.92;20.98;;;11.60;99.90;;;;;;5074967;28;20024;-79
2022/04/14 05:57:10;;;;;;;21.95;19.27;;;11.60;99.90;;;;;;5057485;28;20029;-78
2022/04/14 05:59:35;;;;;;;26.55;19.30;;;11.60;99.90;;;;;;5075400;28;20040;-79
2022/04/14 06:02:01;;;;;;;22.75;19.77;;;11.70;99.90;;;;;;5074636;28;20489;-79
2022/04/14 06:04:26;;;;;;;23.23;19.75;;;11.70;99.90;;;;;;5056576;28;20084;-79
2022/04/14 06:06:52;;;;;;;27.33;18.70;;;11.70;99.90;;;;;;5057099;28;20039;-79
2022/04/14 06:09:18;;;;;;;33.78;19.25;;;11.80;99.90;;;;;;5056430;28;20032;-79
2022/04/14 06:11:44;;;;;;;29.13;18.95;;;11.70;99.90;;;;;;5073720;28;20075;-79
2022/04/14 06:14:09;;;;;;;40.08;19.95;;;11.70;99.90;;;;;;5054996;28;20064;-80
2022/04/14 06:16:35;;;;;;;22.90;20.05;;;11.70;99.90;;;;;;5054492;28;20029;-80
2022/04/14 06:19:01;;;;;;;37.75;19.98;;;11.70;99.90;;;;;;5075445;28;20027;-80
2022/04/14 06:21:27;;;;;;;37.95;20.70;;;11.70;99.90;;;;;;5073339;28;20475;-80
2022/04/14 06:23:52;;;;;;;25.60;20.45;;;11.70;99.90;;;;;;5066548;28;20024;-79
2022/04/14 06:26:18;;;;;;;25.15;20.65;;;11.70;99.90;;;;;;5075104;28;20025;-78
2022/04/14 06:28:46;;;;;;;36.58;19.85;;;11.70;99.90;;;;;;5093803;28;20384;-79
2022/04/14 06:31:12;;;;;;;37.78;19.98;;;11.80;99.90;;;;;;5093267;28;20016;-79
2022/04/14 06:33:38;;;;;;;27.58;19.25;;;11.80;99.90;;;;;;5093603;28;20579;-79
2022/04/14 06:36:04;;;;;;;33.10;20.08;;;11.80;99.90;;;;;;5075393;28;20035;-78
2022/04/14 06:38:29;;;;;;;31.15;18.95;;;11.70;99.90;;;;;;5075124;28;20028;-79
2022/04/14 06:40:55;;;;;;;37.42;19.17;;;11.80;99.90;;;;;;5075507;28;20053;-80
2022/04/14 06:43:21;;;;;;;32.47;20.65;;;11.80;99.90;;;;;;5093287;28;20498;-79
2022/04/14 06:45:50;;;;;;;42.80;20.52;;;11.80;99.90;;;;;;5075614;28;20032;-79
2022/04/14 06:48:16;;;;;;;46.22;21.50;;;11.70;99.90;;;;;;5075160;28;20016;-79
2022/04/14 06:50:41;;;;;;;33.08;20.75;;;11.70;99.90;;;;;;5075233;28;20078;-79
2022/04/14 06:53:07;;;;;;;43.72;21.60;;;11.80;99.90;;;;;;5079166;28;20061;-79
2022/04/14 06:55:35;;;;;;;27.60;22.35;;;11.90;99.90;;;;;;5097553;28;20035;-79
2022/04/14 06:58:02;;;;;;;28.73;22.17;;;11.90;99.90;;;;;;5079263;28;20032;-78
2022/04/14 07:00:27;;;;;;;33.25;22.73;;;11.90;99.90;;;;;;5097549;28;20054;-79
2022/04/14 07:02:55;;;;;;;33.63;21.75;;;12.00;99.90;;;;;;5098495;28;20388;-79
2022/04/14 07:05:22;;;;;;;31.88;22.92;;;12.10;99.90;;;;;;5097555;28;20476;-78
2022/04/14 07:07:48;;;;;;;34.42;24.70;;;12.10;99.90;;;;;;5097583;28;20502;-78
2022/04/14 07:10:14;;;;;;;30.85;22.88;;;12.20;99.90;;;;;;5078869;28;20383;-78
2022/04/14 07:12:44;;;;;;;30.38;22.98;;;12.20;99.90;;;;;;5078833;28;20412;-79
2022/04/14 07:15:11;;;;;;;33.28;24.27;;;12.30;99.90;;;;;;5097359;28;20492;-78
2022/04/14 07:17:37;;;;;;;30.10;24.50;;;12.30;99.90;;;;;;5078687;28;20048;-79
2022/04/14 07:20:05;;;;;;;35.65;25.13;;;12.30;99.90;;;;;;5079265;28;20048;-78
2022/04/14 07:22:40;;;;;;;30.73;24.77;;;12.40;99.90;;;;;;5096924;28;20074;-80
2022/04/14 07:25:06;;;;;;;30.02;24.33;;;12.40;99.90;;;;;;5078665;28;20452;-78
2022/04/14 07:27:31;;;;;;;35.40;27.38;;;12.40;99.90;;;;;;5096994;28;20051;-78
2022/04/14 07:29:57;;;;;;;33.55;26.65;;;12.50;99.90;;;;;;5079190;28;20022;-78
2022/04/14 07:32:23;;;;;;;32.38;24.90;;;12.50;99.90;;;;;;5061980;28;20028;-79
2022/04/14 07:34:48;;;;;;;32.00;24.90;;;12.60;99.90;;;;;;5096898;28;20036;-79
2022/04/14 07:37:14;;;;;;;31.90;25.52;;;12.70;99.90;;;;;;5078595;28;20394;-79
2022/04/14 07:39:40;;;;;;;31.95;25.05;;;12.80;99.90;;;;;;5097233;28;20036;-80
2022/04/14 07:42:06;;;;;;;34.35;26.30;;;12.80;99.90;;;;;;5078902;28;20024;-78
2022/04/14 07:44:31;;;;;;;34.92;26.35;;;12.70;99.90;;;;;;5097048;28;20020;-80
2022/04/14 07:46:57;;;;;;;34.17;25.42;;;12.80;99.90;;;;;;5061710;28;20027;-80
2022/04/14 07:49:23;;;;;;;34.28;24.77;;;12.80;99.90;;;;;;5078774;28;20027;-79
2022/04/14 07:51:48;;;;;;;31.58;22.73;;;12.80;99.90;;;;;;5079091;28;20148;-80
2022/04/14 07:54:14;;;;;;;32.00;23.90;;;12.90;99.90;;;;;;5080090;28;20024;-78
2022/04/14 07:56:39;;;;;;;27.63;21.48;;;12.90;99.90;;;;;;5078524;28;20032;-79
2022/04/14 07:59:05;;;;;;;31.10;21.25;;;12.90;99.90;;;;;;5062822;28;20026;-80
2022/04/14 08:01:31;;;;;;;25.25;20.42;;;12.90;99.90;;;;;;5078488;28;20032;-79
2022/04/14 08:03:56;;;;;;;23.35;18.42;;;13.00;99.90;;;;;;5078124;28;20029;-80
2022/04/14 08:06:25;;;;;;;24.75;19.48;;;13.00;99.90;;;;;;5078517;28;20077;-79
2022/04/14 08:08:51;;;;;;;23.55;18.45;;;13.10;99.90;;;;;;5096687;28;20021;-79
2022/04/14 08:11:16;;;;;;;26.55;19.27;;;13.10;99.90;;;;;;5063495;28;20047;-80
2022/04/14 08:13:42;;;;;;;26.00;18.17;;;13.20;99.90;;;;;;5097774;28;20027;-80
2022/04/14 08:16:09;;;;;;;24.85;19.23;;;13.20;99.90;;;;;;5063627;28;20024;-78
2022/04/14 08:18:39;;;;;;;23.52;18.20;;;13.20;99.90;;;;;;5084954;28;20028;-79
2022/04/14 08:21:06;;;;;;;23.70;17.80;;;13.40;99.90;;;;;;5098289;28;20426;-78
2022/04/14 08:23:38;;;;;;;26.63;18.35;;;13.40;99.90;;;;;;5102401;28;20043;-78
2022/04/14 08:26:05;;;;;;;25.90;17.60;;;13.50;99.90;;;;;;5095502;28;20024;-80
2022/04/14 08:28:30;;;;;;;19.23;14.55;;;13.60;99.90;;;;;;5070726;28;20444;-82
2022/04/14 08:30:56;;;;;;;20.73;14.55;;;13.70;99.90;;;;;;5099477;28;20024;-81
2022/04/14 08:33:24;;;;;;;24.48;14.98;;;13.80;99.90;;;;;;5081461;28;20019;-81
2022/04/14 08:35:52;;;;;;;21.20;14.25;;;14.00;99.90;;;;;;5099348;28;20032;-80
2022/04/14 08:38:17;;;;;;;16.00;12.73;;;14.10;99.90;;;;;;5099826;28;20420;-79
2022/04/14 08:40:47;;;;;;;22.45;13.07;;;14.30;99.90;;;;;;5099565;28;20086;-81
2022/04/14 08:43:16;;;;;;;18.80;12.05;;;14.40;99.90;;;;;;5079926;28;20027;-81
2022/04/14 08:45:47;;;;;;;17.10;11.63;;;14.60;99.90;;;;;;5101064;28;20051;-80
2022/04/14 08:48:15;;;;;;;16.63;10.70;;;14.70;99.90;;;;;;5102271;28;20024;-80
2022/04/14 08:50:43;;;;;;;14.93;10.25;;;14.90;99.90;;;;;;5097878;28;20411;-80
2022/04/14 08:53:09;;;;;;;16.70;10.70;;;15.00;99.90;;;;;;5077765;28;20115;-80
2022/04/14 08:55:40;;;;;;;12.05;8.30;;;15.20;99.90;;;;;;5080115;28;20098;-81
2022/04/14 08:58:06;;;;;;;13.90;9.82;;;15.30;99.60;;;;;;5087681;28;20024;-80
2022/04/14 09:00:32;;;;;;;13.20;9.73;;;15.40;99.70;;;;;;5078029;28;20484;-78
2022/04/14 09:03:00;;;;;;;20.05;10.60;;;15.50;99.20;;;;;;5068444;28;20017;-79
2022/04/14 09:05:25;;;;;;;16.30;9.93;;;15.60;98.90;;;;;;5046670;28;20162;-83
2022/04/14 09:07:52;;;;;;;14.80;9.50;;;15.70;98.50;;;;;;5048722;28;20079;-80
2022/04/14 09:10:18;;;;;;;14.02;9.20;;;15.70;98.40;;;;;;5095459;28;20096;-81
2022/04/14 09:12:46;;;;;;;12.25;8.05;;;15.80;98.00;;;;;;5079295;28;20044;-79
2022/04/14 09:15:11;;;;;;;13.52;7.93;;;15.90;97.80;;;;;;5060399;28;20087;-83
2022/04/14 09:17:37;;;;;;;12.63;8.27;;;15.90;97.40;;;;;;5061952;28;20407;-79
2022/04/14 09:20:38;;;;;;;15.52;8.45;;;16.00;97.20;;;;;;5059586;28;20032;-80
2022/04/14 09:23:18;;;;;;;15.30;7.93;;;16.00;96.90;;;;;;5080166;28;20035;-84
2022/04/14 09:25:46;;;;;;;13.25;7.63;;;16.10;96.80;;;;;;5079112;28;20384;-83
2022/04/14 09:28:18;;;;;;;12.25;7.95;;;16.10;96.50;;;;;;5059470;28;20028;-83
2022/04/14 09:31:04;;;;;;;14.50;8.00;;;16.10;96.30;;;;;;5059495;28;20079;-81
2022/04/14 09:33:32;;;;;;;11.93;7.57;;;16.20;96.00;;;;;;5077878;28;20016;-83
2022/04/14 09:36:04;;;;;;;12.63;7.22;;;16.30;95.90;;;;;;5056966;28;20033;-84
2022/04/14 09:38:53;;;;;;;12.68;8.55;;;16.40;95.60;;;;;;5058107;28;20031;-84
2022/04/14 09:41:31;;;;;;;13.73;8.40;;;16.40;95.30;;;;;;5057978;28;20024;-80
2022/04/14 09:43:59;;;;;;;12.68;8.35;;;16.50;95.10;;;;;;5055864;28;20429;-76
2022/04/14 09:46:26;;;;;;;13.32;8.45;;;16.50;95.00;;;;;;5073646;28;20471;-76
2022/04/14 09:49:09;;;;;;;14.85;8.25;;;16.50;94.70;;;;;;5073853;28;20024;-75
2022/04/14 09:51:51;;;;;;;14.77;8.40;;;16.60;94.50;;;;;;5055670;28;20039;-77
2022/04/14 09:54:27;;;;;;;15.18;8.43;;;16.70;94.40;;;;;;5055848;28;20017;-76
2022/04/14 09:56:55;;;;;;;12.40;7.80;;;16.80;94.50;;;;;;5074255;28;20017;-76
2022/04/14 09:59:25;;;;;;;15.13;7.50;;;16.80;94.10;;;;;;5073660;28;20430;-75
2022/04/14 10:02:14;;;;;;;13.45;7.82;;;16.90;93.90;;;;;;5055508;28;20020;-76
2022/04/14 10:04:41;;;;;;;11.45;8.13;;;16.90;93.60;;;;;;5073971;28;20073;-77
2022/04/14 10:07:15;;;;;;;14.52;7.60;;;17.00;93.50;;;;;;5073393;28;20028;-75
2022/04/14 10:09:48;;;;;;;14.10;7.82;;;17.10;93.30;;;;;;5073461;28;20025;-76
2022/04/14 10:12:23;;;;;;;12.35;7.28;;;17.10;93.10;;;;;;5055263;28;20032;-76
2022/04/14 10:15:09;;;;;;;10.93;6.60;;;17.20;92.90;;;;;;5073159;28;20457;-77
2022/04/14 10:17:40;;;;;;;14.38;7.05;;;17.30;92.80;;;;;;5072758;28;20445;-76
2022/04/14 10:20:10;;;;;;;10.60;6.30;;;17.50;92.60;;;;;;5073198;28;20124;-75
2022/04/14 10:22:37;;;;;;;13.00;7.10;;;17.60;92.30;;;;;;5055186;28;20055;-75
2022/04/14 10:25:04;;;;;;;11.48;6.63;;;17.70;92.00;;;;;;5055399;28;20025;-75
2022/04/14 10:27:33;;;;;;;11.23;6.68;;;17.90;91.70;;;;;;5054593;28;20078;-76
2022/04/14 10:29:59;;;;;;;9.77;5.95;;;18.00;91.40;;;;;;5073361;28;20396;-76
2022/04/14 10:32:26;;;;;;;13.50;6.82;;;18.20;91.40;;;;;;5055480;28;20464;-76
2022/04/14 10:34:52;;;;;;;10.77;6.65;;;18.30;90.80;;;;;;5055320;28;20389;-75
2022/04/14 10:37:38;;;;;;;11.18;6.55;;;18.50;90.50;;;;;;5038529;28;20025;-75
2022/04/14 10:40:04;;;;;;;9.30;5.90;;;18.70;89.80;;;;;;5055566;28;20057;-76
2022/04/14 10:42:31;;;;;;;11.80;5.97;;;18.80;89.50;;;;;;5071889;28;20044;-76
2022/04/14 10:44:57;;;;;;;14.07;6.22;;;19.00;88.90;;;;;;5038398;28;20450;-75
2022/04/14 10:47:42;;;;;;;12.73;6.03;;;19.20;88.10;;;;;;5073002;28;20465;-75
2022/04/14 10:50:28;;;;;;;10.52;4.95;;;19.50;86.00;;;;;;5055326;28;20035;-77
2022/04/14 10:53:23;;;;;;;8.43;4.40;;;19.70;85.00;;;;;;5073055;28;20017;-75
2022/04/14 10:55:50;;;;;;;7.95;4.72;;;19.80;84.40;;;;;;5064732;28;20538;-75
2022/04/14 10:58:40;;;;;;;10.48;5.88;;;20.10;83.70;;;;;;5073013;28;20092;-76
2022/04/14 11:01:07;;;;;;;8.90;5.57;;;20.30;81.90;;;;;;5073237;28;20053;-75
2022/04/14 11:03:48;;;;;;;11.02;5.22;;;20.40;81.50;;;;;;5038759;28;20039;-76
2022/04/14 11:06:42;;;;;;;8.40;4.85;;;20.40;80.40;;;;;;5072842;28;20029;-76
2022/04/14 11:09:08;;;;;;;7.05;4.53;;;20.60;79.70;;;;;;5073101;28;20025;-74
2022/04/14 11:11:59;;;;;;;13.10;5.07;;;20.80;79.60;;;;;;5054965;28;20040;-77
2022/04/14 11:14:24;;;;;;;11.35;4.03;;;20.90;78.20;;;;;;5054959;28;20016;-76
2022/04/14 11:16:50;;;;;;;7.43;3.28;;;21.10;78.20;;;;;;5071927;28;20479;-76
2022/04/14 11:19:19;;;;;;;7.25;3.25;;;21.30;77.20;;;;;;5038135;28;20519;-76
2022/04/14 11:22:01;;;;;;;9.05;3.70;;;21.50;75.80;;;;;;5054523;28;20037;-73
2022/04/14 11:24:45;;;;;;;6.30;2.58;;;21.80;74.50;;;;;;5054608;28;20408;-75
2022/04/14 11:27:16;;;;;;;9.00;3.22;;;21.90;73.50;;;;;;5038109;28;20114;-76
2022/04/14 11:29:47;;;;;;;6.32;2.67;;;22.10;73.30;;;;;;5054914;28;20055;-76
2022/04/14 11:32:14;;;;;;;5.07;2.00;;;22.30;72.20;;;;;;5055065;28;20029;-77
2022/04/14 11:34:41;;;;;;;4.43;2.08;;;22.40;71.30;;;;;;5072717;28;20109;-75
2022/04/14 11:37:40;;;;;;;5.00;2.25;;;22.70;70.40;;;;;;5055340;28;20032;-76
2022/04/14 11:40:13;;;;;;;4.25;1.58;;;22.80;68.40;;;;;;5058358;28;20017;-76
2022/04/14 11:42:40;;;;;;;5.10;2.05;;;23.00;67.90;;;;;;5058378;28;20397;-76
2022/04/14 11:45:06;;;;;;;6.40;2.25;;;23.10;67.30;;;;;;5058122;28;20567;-76
2022/04/14 11:47:33;;;;;;;4.75;1.63;;;23.30;66.10;;;;;;5041509;28;20124;-77
2022/04/14 11:49:59;;;;;;;5.55;1.55;;;23.50;65.40;;;;;;5058295;28;20115;-76
2022/04/14 11:52:25;;;;;;;4.95;1.30;;;23.70;64.60;;;;;;5058133;28;20020;-73
2022/04/14 11:54:51;;;;;;;3.97;1.45;;;23.80;63.10;;;;;;5076055;28;20020;-76
2022/04/14 11:57:28;;;;;;;2.97;0.95;;;23.80;62.30;;;;;;5058413;28;20024;-75
2022/04/14 12:00:06;;;;;;;5.95;1.50;;;23.90;61.60;;;;;;5076538;28;20017;-75
2022/04/14 12:02:31;;;;;;;3.65;1.02;;;24.00;61.30;;;;;;5058137;28;20104;-75
2022/04/14 12:04:58;;;;;;;7.00;1.75;;;24.10;61.50;;;;;;5075131;28;20111;-74
2022/04/14 12:07:29;;;;;;;4.00;1.20;;;24.30;58.70;;;;;;5075560;28;20024;-76
2022/04/14 12:10:00;;;;;;;4.85;1.23;;;24.40;58.50;;;;;;5058164;28;20013;-75
2022/04/14 12:12:31;;;;;;;2.80;0.88;;;24.60;58.00;;;;;;5057669;28;20246;-76
2022/04/14 12:14:57;;;;;;;3.83;0.90;;;24.70;57.70;;;;;;5057669;28;20016;-75
2022/04/14 12:17:24;;;;;;;6.38;1.17;;;24.80;58.00;;;;;;5057371;28;20024;-77
2022/04/14 12:19:55;;;;;;;3.00;0.60;;;24.80;56.90;;;;;;5040879;28;20029;-78
2022/04/14 12:22:23;;;;;;;2.03;0.60;;;24.70;56.50;;;;;;5076128;28;20017;-76
2022/04/14 12:24:54;;;;;;;3.63;1.00;;;24.50;56.20;;;;;;5057660;28;20029;-77
2022/04/14 12:27:28;;;;;;;4.97;1.00;;;24.30;56.00;;;;;;5075659;28;20019;-77
2022/04/14 12:29:56;;;;;;;3.65;0.90;;;24.10;55.90;;;;;;5058240;28;20505;-75
2022/04/14 12:32:26;;;;;;;3.55;1.10;;;23.80;56.00;;;;;;5075242;28;20020;-75
2022/04/14 12:34:53;;;;;;;5.90;2.28;;;23.60;56.10;;;;;;5075196;28;20048;-77